New Albany, Kansas
Current Conditions -  °F | °C
As of 4:52 PM on Tuesday 25 Nov 2014 (Local Time) from KCNU Reporting Station
Clear Clear  
Wind Chill:   Ceiling: Unl
Heat Index:   Visibility: 10mi
Dew Point: -5°   Wind: 8mph
Humidity: 51%   Direction: 160°SSE
Pressure: 30.11"   Gusts: NA
Location:  37.57°N, 95.94°W
Report Text: KCNU 252252Z AUTO 16007KT 10SM CLR 04/M05 A3011 RMK AO2 SLP202 T00441050
Loading
Personal Weather Stations






























Interactive Weather Map New forecast layout! Learn more

10-Day Weather Forecast

Advertisements
Track Severe Weather on mobile